| State | Missouri | Latest | Poor (147 cfs) | |
| River | Turnback Creek | Rating | Observed | Estimated |
| Updated | 2026-05-10 7:30 (1 hour ago) | Flood - The river is flooding. Obstacles can be treacherous or deadly. The river should be avoided at this stage for casual trips and definitely for the inexperienced. Trips should be attempted only with protective gear and equipment.Flood | (none) | 1121 |
| Discharge | 147 cfs (median: 287 cfs) | High - The river is high and potentially dangerous, especially for the young and / or inexperienced. Normal stream obstacles are sometimes difficult to navigate. Extended distances can be attempted, but canoe travel may not be advisable.High | (none) | 512 |
| Height | 5.28 feet | Good - Conditions are ideal for a canoe or kayak. Boats typically will drag on fewer than one-quarter of riffles, if at all, and portages are unnecessary or rare. Normal float lengths can be attempted without a problem.Good | (none) | 236 |
| Trend | Rising (falling over 24 hours) | Low - River is low but can still be floated. Some riffles are okay but most come with significant dragging and might need a portage. Float lengths should be reduced to accommodate low flow, dragging, and portages.Low | (none) | 156 |
| USGS | USGS Site ( Duck Duck Go Maps) | Poor - River is too low to float comfortably. Most or all riffles will drag or must be portaged and some obstacles (such as slick shelf rock) cause undue problems. Avoid the river at this stage for casual paddling trips.Poor | (none) | 52 |
A total of 1 rows are displayed.
| Miles | 4.5 |
| Trips | 1 |
| People | 1 |
| Dates | 1 |
| Years | 1 |
| Months | 1 |
| Rows | 1 |
| Sources | 1 |
BLG - Bluegill
CCF - Channel Catfish
CP - Chain Pickerel
FWD - Freshwater Drum
GSF - Green Sunfish
KSB - Kentucky Spotted Bass
LMB - Largemouth Bass
LSF - Longear Sunfish
RB - Rock Bass / Goggle Eye
RSF - Redear Sunfish
RT - Rainbow Trout
SMB - Smallmouth Bass
WB - White Bass
WF - Whitefish
WL - WalleyeThe classic River Trips application is still available for use. It is updated with the new system using a data retrofit. It is no longer maintained. The original River Trips application is no longer updated (as of 1 Dec 2016) but can be checked for errors or for the condition of the data before it was converted to the new system.
| Observation | Height | Discharge | Maximum Discharge | Minimum Discharge | Mean Discharge | P05 | P10 | P20 | P25 | P50 (Median) | P75 | P80 | P90 | P95 |
|---|---|---|---|---|---|---|---|---|---|---|---|---|---|---|
| 2026-05-10 07:30 | 5.28 | 147 | 1800 (2022) | 37 (1981) | 437 | 94 | 107 | 148 | 154 | 287 | 571 | 739 | 1000 | 1300 |
| 2026-05-10 06:30 | 5.26 | 143 | 1800 (2022) | 37 (1981) | 437 | 94 | 107 | 148 | 154 | 287 | 571 | 739 | 1000 | 1300 |
| 2026-05-10 05:30 | 5.26 | 143 | 1800 (2022) | 37 (1981) | 437 | 94 | 107 | 148 | 154 | 287 | 571 | 739 | 1000 | 1300 |
| 2026-05-10 04:30 | 5.26 | 143 | 1800 (2022) | 37 (1981) | 437 | 94 | 107 | 148 | 154 | 287 | 571 | 739 | 1000 | 1300 |
| 2026-05-10 03:30 | 5.26 | 143 | 1800 (2022) | 37 (1981) | 437 | 94 | 107 | 148 | 154 | 287 | 571 | 739 | 1000 | 1300 |
| 2026-05-10 02:30 | 5.26 | 143 | 1800 (2022) | 37 (1981) | 437 | 94 | 107 | 148 | 154 | 287 | 571 | 739 | 1000 | 1300 |
| 2026-05-10 01:30 | 5.27 | 145 | 1800 (2022) | 37 (1981) | 437 | 94 | 107 | 148 | 154 | 287 | 571 | 739 | 1000 | 1300 |
| 2026-05-10 00:30 | 5.27 | 145 | 1800 (2022) | 37 (1981) | 437 | 94 | 107 | 148 | 154 | 287 | 571 | 739 | 1000 | 1300 |
| 2026-05-09 23:30 | 5.27 | 145 | 1800 (2022) | 37 (1981) | 437 | 94 | 107 | 148 | 154 | 287 | 571 | 739 | 1000 | 1300 |
| 2026-05-09 22:30 | 5.28 | 147 | 3680 (2002) | 28 (1981) | 528 | 88 | 114 | 145 | 158 | 280 | 630 | 857 | 1390 | 1810 |
| 2026-05-09 21:30 | 5.29 | 149 | 3680 (2002) | 28 (1981) | 528 | 88 | 114 | 145 | 158 | 280 | 630 | 857 | 1390 | 1810 |
| 2026-05-09 20:30 | 5.28 | 147 | 3680 (2002) | 28 (1981) | 528 | 88 | 114 | 145 | 158 | 280 | 630 | 857 | 1390 | 1810 |
| 2026-05-09 19:30 | 5.29 | 149 | 3680 (2002) | 28 (1981) | 528 | 88 | 114 | 145 | 158 | 280 | 630 | 857 | 1390 | 1810 |
| 2026-05-09 18:30 | 5.27 | 145 | 3680 (2002) | 28 (1981) | 528 | 88 | 114 | 145 | 158 | 280 | 630 | 857 | 1390 | 1810 |
| 2026-05-09 17:30 | 5.30 | 151 | 3680 (2002) | 28 (1981) | 528 | 88 | 114 | 145 | 158 | 280 | 630 | 857 | 1390 | 1810 |
| 2026-05-09 16:30 | 5.29 | 149 | 3680 (2002) | 28 (1981) | 528 | 88 | 114 | 145 | 158 | 280 | 630 | 857 | 1390 | 1810 |
| 2026-05-09 15:30 | 5.30 | 151 | 3680 (2002) | 28 (1981) | 528 | 88 | 114 | 145 | 158 | 280 | 630 | 857 | 1390 | 1810 |
| 2026-05-09 14:30 | 5.30 | 151 | 3680 (2002) | 28 (1981) | 528 | 88 | 114 | 145 | 158 | 280 | 630 | 857 | 1390 | 1810 |
| 2026-05-09 13:30 | 5.31 | 153 | 3680 (2002) | 28 (1981) | 528 | 88 | 114 | 145 | 158 | 280 | 630 | 857 | 1390 | 1810 |
| 2026-05-09 12:30 | 5.30 | 151 | 3680 (2002) | 28 (1981) | 528 | 88 | 114 | 145 | 158 | 280 | 630 | 857 | 1390 | 1810 |
| 2026-05-09 11:30 | 5.30 | 151 | 3680 (2002) | 28 (1981) | 528 | 88 | 114 | 145 | 158 | 280 | 630 | 857 | 1390 | 1810 |
| 2026-05-09 10:30 | 5.31 | 153 | 3680 (2002) | 28 (1981) | 528 | 88 | 114 | 145 | 158 | 280 | 630 | 857 | 1390 | 1810 |
| 2026-05-09 09:30 | 5.31 | 153 | 3680 (2002) | 28 (1981) | 528 | 88 | 114 | 145 | 158 | 280 | 630 | 857 | 1390 | 1810 |
| 2026-05-09 08:30 | 5.30 | 151 | 3680 (2002) | 28 (1981) | 528 | 88 | 114 | 145 | 158 | 280 | 630 | 857 | 1390 | 1810 |
| 2026-05-09 07:30 | 5.31 | 153 | 3680 (2002) | 28 (1981) | 528 | 88 | 114 | 145 | 158 | 280 | 630 | 857 | 1390 | 1810 |
| 2026-05-09 06:30 | 5.31 | 153 | 3680 (2002) | 28 (1981) | 528 | 88 | 114 | 145 | 158 | 280 | 630 | 857 | 1390 | 1810 |
| 2026-05-09 05:30 | 5.32 | 155 | 3680 (2002) | 28 (1981) | 528 | 88 | 114 | 145 | 158 | 280 | 630 | 857 | 1390 | 1810 |
| 2026-05-09 03:30 | 5.31 | 153 | 3680 (2002) | 28 (1981) | 528 | 88 | 114 | 145 | 158 | 280 | 630 | 857 | 1390 | 1810 |
| 2026-05-09 02:30 | 5.32 | 155 | 3680 (2002) | 28 (1981) | 528 | 88 | 114 | 145 | 158 | 280 | 630 | 857 | 1390 | 1810 |
| 2026-05-09 01:30 | 5.33 | 158 | 3680 (2002) | 28 (1981) | 528 | 88 | 114 | 145 | 158 | 280 | 630 | 857 | 1390 | 1810 |
| 2026-05-09 00:30 | 5.32 | 155 | 3680 (2002) | 28 (1981) | 528 | 88 | 114 | 145 | 158 | 280 | 630 | 857 | 1390 | 1810 |
| 2026-05-08 23:30 | 5.32 | 155 | 3680 (2002) | 28 (1981) | 528 | 88 | 114 | 145 | 158 | 280 | 630 | 857 | 1390 | 1810 |
| 2026-05-08 22:30 | 5.33 | 158 | 8210 (2002) | 27 (1981) | 640 | 81 | 106 | 144 | 160 | 224 | 617 | 817 | 1770 | 2310 |
| 2026-05-08 21:30 | 5.33 | 158 | 8210 (2002) | 27 (1981) | 640 | 81 | 106 | 144 | 160 | 224 | 617 | 817 | 1770 | 2310 |
| 2026-05-08 20:30 | 5.33 | 158 | 8210 (2002) | 27 (1981) | 640 | 81 | 106 | 144 | 160 | 224 | 617 | 817 | 1770 | 2310 |
| 2026-05-08 19:30 | 5.32 | 155 | 8210 (2002) | 27 (1981) | 640 | 81 | 106 | 144 | 160 | 224 | 617 | 817 | 1770 | 2310 |
| 2026-05-08 18:30 | 5.34 | 160 | 8210 (2002) | 27 (1981) | 640 | 81 | 106 | 144 | 160 | 224 | 617 | 817 | 1770 | 2310 |
| 2026-05-08 17:30 | 5.34 | 160 | 8210 (2002) | 27 (1981) | 640 | 81 | 106 | 144 | 160 | 224 | 617 | 817 | 1770 | 2310 |
| 2026-05-08 16:30 | 5.35 | 162 | 8210 (2002) | 27 (1981) | 640 | 81 | 106 | 144 | 160 | 224 | 617 | 817 | 1770 | 2310 |
| 2026-05-08 15:30 | 5.34 | 160 | 8210 (2002) | 27 (1981) | 640 | 81 | 106 | 144 | 160 | 224 | 617 | 817 | 1770 | 2310 |
| 2026-05-08 14:30 | 5.35 | 162 | 8210 (2002) | 27 (1981) | 640 | 81 | 106 | 144 | 160 | 224 | 617 | 817 | 1770 | 2310 |
| 2026-05-08 13:30 | 5.35 | 162 | 8210 (2002) | 27 (1981) | 640 | 81 | 106 | 144 | 160 | 224 | 617 | 817 | 1770 | 2310 |
| 2026-05-08 12:30 | 5.36 | 164 | 8210 (2002) | 27 (1981) | 640 | 81 | 106 | 144 | 160 | 224 | 617 | 817 | 1770 | 2310 |
| 2026-05-08 11:30 | 5.35 | 162 | 8210 (2002) | 27 (1981) | 640 | 81 | 106 | 144 | 160 | 224 | 617 | 817 | 1770 | 2310 |
| 2026-05-08 10:30 | 5.34 | 160 | 8210 (2002) | 27 (1981) | 640 | 81 | 106 | 144 | 160 | 224 | 617 | 817 | 1770 | 2310 |
| 2026-05-08 09:30 | 5.36 | 164 | 8210 (2002) | 27 (1981) | 640 | 81 | 106 | 144 | 160 | 224 | 617 | 817 | 1770 | 2310 |
| 2026-05-08 08:30 | 5.34 | 160 | 8210 (2002) | 27 (1981) | 640 | 81 | 106 | 144 | 160 | 224 | 617 | 817 | 1770 | 2310 |
| 2026-05-08 07:30 | 5.35 | 162 | 8210 (2002) | 27 (1981) | 640 | 81 | 106 | 144 | 160 | 224 | 617 | 817 | 1770 | 2310 |
| 2026-05-08 06:30 | 5.37 | 166 | 8210 (2002) | 27 (1981) | 640 | 81 | 106 | 144 | 160 | 224 | 617 | 817 | 1770 | 2310 |
| 2026-05-08 05:30 | 5.37 | 166 | 8210 (2002) | 27 (1981) | 640 | 81 | 106 | 144 | 160 | 224 | 617 | 817 | 1770 | 2310 |
| 2026-05-08 04:30 | 5.36 | 164 | 8210 (2002) | 27 (1981) | 640 | 81 | 106 | 144 | 160 | 224 | 617 | 817 | 1770 | 2310 |
| 2026-05-08 03:30 | 5.37 | 166 | 8210 (2002) | 27 (1981) | 640 | 81 | 106 | 144 | 160 | 224 | 617 | 817 | 1770 | 2310 |
| 2026-05-08 02:30 | 5.36 | 164 | 8210 (2002) | 27 (1981) | 640 | 81 | 106 | 144 | 160 | 224 | 617 | 817 | 1770 | 2310 |
| 2026-05-08 01:30 | 5.37 | 166 | 8210 (2002) | 27 (1981) | 640 | 81 | 106 | 144 | 160 | 224 | 617 | 817 | 1770 | 2310 |
| 2026-05-08 00:30 | 5.37 | 166 | 8210 (2002) | 27 (1981) | 640 | 81 | 106 | 144 | 160 | 224 | 617 | 817 | 1770 | 2310 |
| 2026-05-07 23:30 | 5.37 | 166 | 8210 (2002) | 27 (1981) | 640 | 81 | 106 | 144 | 160 | 224 | 617 | 817 | 1770 | 2310 |
| 2026-05-07 22:30 | 5.37 | 166 | 3270 (1994) | 27 (1981) | 478 | 61 | 111 | 151 | 163 | 229 | 576 | 691 | 1080 | 1630 |
| 2026-05-07 21:30 | 5.38 | 169 | 3270 (1994) | 27 (1981) | 478 | 61 | 111 | 151 | 163 | 229 | 576 | 691 | 1080 | 1630 |
| 2026-05-07 20:30 | 5.37 | 166 | 3270 (1994) | 27 (1981) | 478 | 61 | 111 | 151 | 163 | 229 | 576 | 691 | 1080 | 1630 |
| 2026-05-07 19:30 | 5.38 | 169 | 3270 (1994) | 27 (1981) | 478 | 61 | 111 | 151 | 163 | 229 | 576 | 691 | 1080 | 1630 |
| 2026-05-07 18:30 | 5.40 | 173 | 3270 (1994) | 27 (1981) | 478 | 61 | 111 | 151 | 163 | 229 | 576 | 691 | 1080 | 1630 |
| 2026-05-07 17:30 | 5.39 | 171 | 3270 (1994) | 27 (1981) | 478 | 61 | 111 | 151 | 163 | 229 | 576 | 691 | 1080 | 1630 |
| 2026-05-07 16:30 | 5.41 | 176 | 3270 (1994) | 27 (1981) | 478 | 61 | 111 | 151 | 163 | 229 | 576 | 691 | 1080 | 1630 |
| 2026-05-07 15:30 | 5.41 | 176 | 3270 (1994) | 27 (1981) | 478 | 61 | 111 | 151 | 163 | 229 | 576 | 691 | 1080 | 1630 |
| 2026-05-07 14:30 | 5.40 | 173 | 3270 (1994) | 27 (1981) | 478 | 61 | 111 | 151 | 163 | 229 | 576 | 691 | 1080 | 1630 |
| 2026-05-07 13:30 | 5.41 | 176 | 3270 (1994) | 27 (1981) | 478 | 61 | 111 | 151 | 163 | 229 | 576 | 691 | 1080 | 1630 |
| 2026-05-07 12:30 | 5.42 | 178 | 3270 (1994) | 27 (1981) | 478 | 61 | 111 | 151 | 163 | 229 | 576 | 691 | 1080 | 1630 |
| 2026-05-07 11:30 | 5.41 | 176 | 3270 (1994) | 27 (1981) | 478 | 61 | 111 | 151 | 163 | 229 | 576 | 691 | 1080 | 1630 |
| 2026-05-07 10:30 | 5.42 | 178 | 3270 (1994) | 27 (1981) | 478 | 61 | 111 | 151 | 163 | 229 | 576 | 691 | 1080 | 1630 |
| 2026-05-07 09:30 | 5.40 | 173 | 3270 (1994) | 27 (1981) | 478 | 61 | 111 | 151 | 163 | 229 | 576 | 691 | 1080 | 1630 |
| 2026-05-07 08:30 | 5.40 | 173 | 3270 (1994) | 27 (1981) | 478 | 61 | 111 | 151 | 163 | 229 | 576 | 691 | 1080 | 1630 |
| 2026-05-07 07:30 | 5.41 | 176 | 3270 (1994) | 27 (1981) | 478 | 61 | 111 | 151 | 163 | 229 | 576 | 691 | 1080 | 1630 |
| 2026-05-07 06:30 | 5.42 | 178 | 3270 (1994) | 27 (1981) | 478 | 61 | 111 | 151 | 163 | 229 | 576 | 691 | 1080 | 1630 |
| 2026-05-07 05:30 | 5.42 | 178 | 3270 (1994) | 27 (1981) | 478 | 61 | 111 | 151 | 163 | 229 | 576 | 691 | 1080 | 1630 |
| 2026-05-07 04:30 | 5.43 | 180 | 3270 (1994) | 27 (1981) | 478 | 61 | 111 | 151 | 163 | 229 | 576 | 691 | 1080 | 1630 |
| 2026-05-07 03:30 | 5.43 | 180 | 3270 (1994) | 27 (1981) | 478 | 61 | 111 | 151 | 163 | 229 | 576 | 691 | 1080 | 1630 |
| 2026-05-07 02:30 | 5.43 | 180 | 3270 (1994) | 27 (1981) | 478 | 61 | 111 | 151 | 163 | 229 | 576 | 691 | 1080 | 1630 |
| 2026-05-07 01:30 | 5.44 | 183 | 3270 (1994) | 27 (1981) | 478 | 61 | 111 | 151 | 163 | 229 | 576 | 691 | 1080 | 1630 |
| 2026-05-07 00:30 | 5.45 | 185 | 3270 (1994) | 27 (1981) | 478 | 61 | 111 | 151 | 163 | 229 | 576 | 691 | 1080 | 1630 |
| 2026-05-06 23:30 | 5.44 | 183 | 3270 (1994) | 27 (1981) | 478 | 61 | 111 | 151 | 163 | 229 | 576 | 691 | 1080 | 1630 |
| 2026-05-06 22:30 | 5.44 | 183 | 4730 (2022) | 29 (1981) | 465 | 67 | 115 | 160 | 169 | 241 | 510 | 686 | 891 | 1470 |
| 2026-05-06 21:30 | 5.43 | 180 | 4730 (2022) | 29 (1981) | 465 | 67 | 115 | 160 | 169 | 241 | 510 | 686 | 891 | 1470 |
| 2026-05-06 20:30 | 5.45 | 185 | 4730 (2022) | 29 (1981) | 465 | 67 | 115 | 160 | 169 | 241 | 510 | 686 | 891 | 1470 |
| 2026-05-06 19:30 | 5.43 | 180 | 4730 (2022) | 29 (1981) | 465 | 67 | 115 | 160 | 169 | 241 | 510 | 686 | 891 | 1470 |
| 2026-05-06 18:30 | 5.46 | 187 | 4730 (2022) | 29 (1981) | 465 | 67 | 115 | 160 | 169 | 241 | 510 | 686 | 891 | 1470 |
| 2026-05-06 17:30 | 5.46 | 187 | 4730 (2022) | 29 (1981) | 465 | 67 | 115 | 160 | 169 | 241 | 510 | 686 | 891 | 1470 |
| 2026-05-06 16:30 | 5.48 | 192 | 4730 (2022) | 29 (1981) | 465 | 67 | 115 | 160 | 169 | 241 | 510 | 686 | 891 | 1470 |
| 2026-05-06 15:30 | 5.47 | 190 | 4730 (2022) | 29 (1981) | 465 | 67 | 115 | 160 | 169 | 241 | 510 | 686 | 891 | 1470 |
| 2026-05-06 14:30 | 5.45 | 185 | 4730 (2022) | 29 (1981) | 465 | 67 | 115 | 160 | 169 | 241 | 510 | 686 | 891 | 1470 |
| 2026-05-06 13:30 | 5.48 | 192 | 4730 (2022) | 29 (1981) | 465 | 67 | 115 | 160 | 169 | 241 | 510 | 686 | 891 | 1470 |
| 2026-05-06 12:30 | 5.48 | 192 | 4730 (2022) | 29 (1981) | 465 | 67 | 115 | 160 | 169 | 241 | 510 | 686 | 891 | 1470 |
| 2026-05-06 11:30 | 5.48 | 192 | 4730 (2022) | 29 (1981) | 465 | 67 | 115 | 160 | 169 | 241 | 510 | 686 | 891 | 1470 |
| 2026-05-06 10:30 | 5.50 | 197 | 4730 (2022) | 29 (1981) | 465 | 67 | 115 | 160 | 169 | 241 | 510 | 686 | 891 | 1470 |
| 2026-05-06 09:30 | 5.48 | 192 | 4730 (2022) | 29 (1981) | 465 | 67 | 115 | 160 | 169 | 241 | 510 | 686 | 891 | 1470 |
| 2026-05-06 08:30 | 5.51 | 200 | 4730 (2022) | 29 (1981) | 465 | 67 | 115 | 160 | 169 | 241 | 510 | 686 | 891 | 1470 |
| 2026-05-06 07:30 | 5.51 | 200 | 4730 (2022) | 29 (1981) | 465 | 67 | 115 | 160 | 169 | 241 | 510 | 686 | 891 | 1470 |
| 2026-05-06 06:30 | 5.49 | 195 | 4730 (2022) | 29 (1981) | 465 | 67 | 115 | 160 | 169 | 241 | 510 | 686 | 891 | 1470 |
| 2026-05-06 05:30 | 5.50 | 197 | 4730 (2022) | 29 (1981) | 465 | 67 | 115 | 160 | 169 | 241 | 510 | 686 | 891 | 1470 |
| 2026-05-06 04:30 | 5.51 | 200 | 4730 (2022) | 29 (1981) | 465 | 67 | 115 | 160 | 169 | 241 | 510 | 686 | 891 | 1470 |
| 2026-05-06 03:30 | 5.51 | 200 | 4730 (2022) | 29 (1981) | 465 | 67 | 115 | 160 | 169 | 241 | 510 | 686 | 891 | 1470 |
| 2026-05-06 02:30 | 5.51 | 200 | 4730 (2022) | 29 (1981) | 465 | 67 | 115 | 160 | 169 | 241 | 510 | 686 | 891 | 1470 |
| 2026-05-06 01:30 | 5.51 | 200 | 4730 (2022) | 29 (1981) | 465 | 67 | 115 | 160 | 169 | 241 | 510 | 686 | 891 | 1470 |
| 2026-05-06 00:30 | 5.51 | 200 | 4730 (2022) | 29 (1981) | 465 | 67 | 115 | 160 | 169 | 241 | 510 | 686 | 891 | 1470 |
| 2026-05-05 23:30 | 5.51 | 200 | 4730 (2022) | 29 (1981) | 465 | 67 | 115 | 160 | 169 | 241 | 510 | 686 | 891 | 1470 |
| 2026-05-05 22:30 | 5.51 | 200 | 15600 (2022) | 31 (1981) | 718 | 71 | 120 | 150 | 172 | 250 | 539 | 685 | 1010 | 2030 |
| 2026-05-05 21:30 | 5.54 | 207 | 15600 (2022) | 31 (1981) | 718 | 71 | 120 | 150 | 172 | 250 | 539 | 685 | 1010 | 2030 |
| 2026-05-05 20:30 | 5.53 | 205 | 15600 (2022) | 31 (1981) | 718 | 71 | 120 | 150 | 172 | 250 | 539 | 685 | 1010 | 2030 |
| 2026-05-05 19:30 | 5.51 | 200 | 15600 (2022) | 31 (1981) | 718 | 71 | 120 | 150 | 172 | 250 | 539 | 685 | 1010 | 2030 |
| 2026-05-05 18:30 | 5.50 | 197 | 15600 (2022) | 31 (1981) | 718 | 71 | 120 | 150 | 172 | 250 | 539 | 685 | 1010 | 2030 |
| 2026-05-05 17:30 | 5.52 | 202 | 15600 (2022) | 31 (1981) | 718 | 71 | 120 | 150 | 172 | 250 | 539 | 685 | 1010 | 2030 |
| 2026-05-05 16:30 | 5.53 | 205 | 15600 (2022) | 31 (1981) | 718 | 71 | 120 | 150 | 172 | 250 | 539 | 685 | 1010 | 2030 |
| 2026-05-05 15:30 | 5.50 | 197 | 15600 (2022) | 31 (1981) | 718 | 71 | 120 | 150 | 172 | 250 | 539 | 685 | 1010 | 2030 |
| 2026-05-05 14:30 | 5.48 | 192 | 15600 (2022) | 31 (1981) | 718 | 71 | 120 | 150 | 172 | 250 | 539 | 685 | 1010 | 2030 |
| 2026-05-05 13:30 | 5.54 | 207 | 15600 (2022) | 31 (1981) | 718 | 71 | 120 | 150 | 172 | 250 | 539 | 685 | 1010 | 2030 |
| 2026-05-05 12:30 | 5.50 | 197 | 15600 (2022) | 31 (1981) | 718 | 71 | 120 | 150 | 172 | 250 | 539 | 685 | 1010 | 2030 |
| 2026-05-05 11:30 | 5.52 | 202 | 15600 (2022) | 31 (1981) | 718 | 71 | 120 | 150 | 172 | 250 | 539 | 685 | 1010 | 2030 |
| 2026-05-05 10:30 | 5.53 | 205 | 15600 (2022) | 31 (1981) | 718 | 71 | 120 | 150 | 172 | 250 | 539 | 685 | 1010 | 2030 |
| 2026-05-05 09:30 | 5.52 | 202 | 15600 (2022) | 31 (1981) | 718 | 71 | 120 | 150 | 172 | 250 | 539 | 685 | 1010 | 2030 |
| 2026-05-05 08:30 | 5.53 | 205 | 15600 (2022) | 31 (1981) | 718 | 71 | 120 | 150 | 172 | 250 | 539 | 685 | 1010 | 2030 |
| 2026-05-05 07:30 | 5.53 | 205 | 15600 (2022) | 31 (1981) | 718 | 71 | 120 | 150 | 172 | 250 | 539 | 685 | 1010 | 2030 |
| 2026-05-05 06:30 | 5.53 | 205 | 15600 (2022) | 31 (1981) | 718 | 71 | 120 | 150 | 172 | 250 | 539 | 685 | 1010 | 2030 |
| 2026-05-05 05:30 | 5.53 | 205 | 15600 (2022) | 31 (1981) | 718 | 71 | 120 | 150 | 172 | 250 | 539 | 685 | 1010 | 2030 |
| 2026-05-05 04:30 | 5.54 | 207 | 15600 (2022) | 31 (1981) | 718 | 71 | 120 | 150 | 172 | 250 | 539 | 685 | 1010 | 2030 |
| 2026-05-05 03:30 | 5.54 | 207 | 15600 (2022) | 31 (1981) | 718 | 71 | 120 | 150 | 172 | 250 | 539 | 685 | 1010 | 2030 |
| 2026-05-05 02:30 | 5.55 | 210 | 15600 (2022) | 31 (1981) | 718 | 71 | 120 | 150 | 172 | 250 | 539 | 685 | 1010 | 2030 |
| 2026-05-05 01:30 | 5.53 | 205 | 15600 (2022) | 31 (1981) | 718 | 71 | 120 | 150 | 172 | 250 | 539 | 685 | 1010 | 2030 |
| 2026-05-05 00:30 | 5.53 | 205 | 15600 (2022) | 31 (1981) | 718 | 71 | 120 | 150 | 172 | 250 | 539 | 685 | 1010 | 2030 |
| 2026-05-04 23:30 | 5.54 | 207 | 15600 (2022) | 31 (1981) | 718 | 71 | 120 | 150 | 172 | 250 | 539 | 685 | 1010 | 2030 |
| 2026-05-04 22:30 | 5.56 | 212 | 2970 (1999) | 31 (1981) | 508 | 75 | 125 | 155 | 170 | 259 | 610 | 838 | 1220 | 1700 |
| 2026-05-04 21:30 | 5.55 | 210 | 2970 (1999) | 31 (1981) | 508 | 75 | 125 | 155 | 170 | 259 | 610 | 838 | 1220 | 1700 |
| 2026-05-04 20:30 | 5.55 | 210 | 2970 (1999) | 31 (1981) | 508 | 75 | 125 | 155 | 170 | 259 | 610 | 838 | 1220 | 1700 |
| 2026-05-04 19:30 | 5.58 | 217 | 2970 (1999) | 31 (1981) | 508 | 75 | 125 | 155 | 170 | 259 | 610 | 838 | 1220 | 1700 |
| 2026-05-04 18:30 | 5.57 | 215 | 2970 (1999) | 31 (1981) | 508 | 75 | 125 | 155 | 170 | 259 | 610 | 838 | 1220 | 1700 |
| 2026-05-04 17:30 | 5.56 | 212 | 2970 (1999) | 31 (1981) | 508 | 75 | 125 | 155 | 170 | 259 | 610 | 838 | 1220 | 1700 |
| 2026-05-04 16:30 | 5.57 | 215 | 2970 (1999) | 31 (1981) | 508 | 75 | 125 | 155 | 170 | 259 | 610 | 838 | 1220 | 1700 |
| 2026-05-04 15:30 | 5.60 | 223 | 2970 (1999) | 31 (1981) | 508 | 75 | 125 | 155 | 170 | 259 | 610 | 838 | 1220 | 1700 |
| 2026-05-04 14:30 | 5.58 | 217 | 2970 (1999) | 31 (1981) | 508 | 75 | 125 | 155 | 170 | 259 | 610 | 838 | 1220 | 1700 |
| 2026-05-04 13:30 | 5.60 | 223 | 2970 (1999) | 31 (1981) | 508 | 75 | 125 | 155 | 170 | 259 | 610 | 838 | 1220 | 1700 |
| 2026-05-04 12:30 | 5.60 | 223 | 2970 (1999) | 31 (1981) | 508 | 75 | 125 | 155 | 170 | 259 | 610 | 838 | 1220 | 1700 |
| 2026-05-04 11:30 | 5.58 | 217 | 2970 (1999) | 31 (1981) | 508 | 75 | 125 | 155 | 170 | 259 | 610 | 838 | 1220 | 1700 |
| 2026-05-04 10:30 | 5.63 | 230 | 2970 (1999) | 31 (1981) | 508 | 75 | 125 | 155 | 170 | 259 | 610 | 838 | 1220 | 1700 |
| 2026-05-04 09:30 | 5.59 | 220 | 2970 (1999) | 31 (1981) | 508 | 75 | 125 | 155 | 170 | 259 | 610 | 838 | 1220 | 1700 |
| 2026-05-04 08:30 | 5.60 | 223 | 2970 (1999) | 31 (1981) | 508 | 75 | 125 | 155 | 170 | 259 | 610 | 838 | 1220 | 1700 |
| 2026-05-04 07:30 | 5.59 | 220 | 2970 (1999) | 31 (1981) | 508 | 75 | 125 | 155 | 170 | 259 | 610 | 838 | 1220 | 1700 |
| 2026-05-04 06:30 | 5.61 | 225 | 2970 (1999) | 31 (1981) | 508 | 75 | 125 | 155 | 170 | 259 | 610 | 838 | 1220 | 1700 |
| 2026-05-04 05:30 | 5.60 | 223 | 2970 (1999) | 31 (1981) | 508 | 75 | 125 | 155 | 170 | 259 | 610 | 838 | 1220 | 1700 |
| 2026-05-04 04:30 | 5.60 | 223 | 2970 (1999) | 31 (1981) | 508 | 75 | 125 | 155 | 170 | 259 | 610 | 838 | 1220 | 1700 |
| 2026-05-04 03:30 | 5.62 | 228 | 2970 (1999) | 31 (1981) | 508 | 75 | 125 | 155 | 170 | 259 | 610 | 838 | 1220 | 1700 |
| 2026-05-04 02:30 | 5.61 | 225 | 2970 (1999) | 31 (1981) | 508 | 75 | 125 | 155 | 170 | 259 | 610 | 838 | 1220 | 1700 |
| 2026-05-04 01:30 | 5.61 | 225 | 2970 (1999) | 31 (1981) | 508 | 75 | 125 | 155 | 170 | 259 | 610 | 838 | 1220 | 1700 |
| 2026-05-04 00:30 | 5.60 | 223 | 2970 (1999) | 31 (1981) | 508 | 75 | 125 | 155 | 170 | 259 | 610 | 838 | 1220 | 1700 |
| 2026-05-03 23:30 | 5.64 | 233 | 2970 (1999) | 31 (1981) | 508 | 75 | 125 | 155 | 170 | 259 | 610 | 838 | 1220 | 1700 |
| 2026-05-03 22:30 | 5.63 | 230 | 3160 (2017) | 31 (1981) | 466 | 79 | 129 | 159 | 164 | 287 | 597 | 671 | 1100 | 1320 |
| 2026-05-03 21:30 | 5.63 | 230 | 3160 (2017) | 31 (1981) | 466 | 79 | 129 | 159 | 164 | 287 | 597 | 671 | 1100 | 1320 |
| 2026-05-03 20:30 | 5.62 | 228 | 3160 (2017) | 31 (1981) | 466 | 79 | 129 | 159 | 164 | 287 | 597 | 671 | 1100 | 1320 |
| 2026-05-03 19:30 | 5.64 | 233 | 3160 (2017) | 31 (1981) | 466 | 79 | 129 | 159 | 164 | 287 | 597 | 671 | 1100 | 1320 |
| 2026-05-03 18:30 | 5.65 | 236 | 3160 (2017) | 31 (1981) | 466 | 79 | 129 | 159 | 164 | 287 | 597 | 671 | 1100 | 1320 |
| 2026-05-03 17:30 | 5.66 | 239 | 3160 (2017) | 31 (1981) | 466 | 79 | 129 | 159 | 164 | 287 | 597 | 671 | 1100 | 1320 |
| 2026-05-03 16:30 | 5.66 | 239 | 3160 (2017) | 31 (1981) | 466 | 79 | 129 | 159 | 164 | 287 | 597 | 671 | 1100 | 1320 |
| 2026-05-03 15:30 | 5.67 | 241 | 3160 (2017) | 31 (1981) | 466 | 79 | 129 | 159 | 164 | 287 | 597 | 671 | 1100 | 1320 |
| 2026-05-03 14:30 | 5.68 | 244 | 3160 (2017) | 31 (1981) | 466 | 79 | 129 | 159 | 164 | 287 | 597 | 671 | 1100 | 1320 |
| 2026-05-03 13:30 | 5.66 | 239 | 3160 (2017) | 31 (1981) | 466 | 79 | 129 | 159 | 164 | 287 | 597 | 671 | 1100 | 1320 |
| 2026-05-03 12:30 | 5.67 | 241 | 3160 (2017) | 31 (1981) | 466 | 79 | 129 | 159 | 164 | 287 | 597 | 671 | 1100 | 1320 |
| 2026-05-03 11:30 | 5.68 | 244 | 3160 (2017) | 31 (1981) | 466 | 79 | 129 | 159 | 164 | 287 | 597 | 671 | 1100 | 1320 |
| 2026-05-03 10:30 | 5.68 | 244 | 3160 (2017) | 31 (1981) | 466 | 79 | 129 | 159 | 164 | 287 | 597 | 671 | 1100 | 1320 |
| 2026-05-03 09:30 | 5.67 | 241 | 3160 (2017) | 31 (1981) | 466 | 79 | 129 | 159 | 164 | 287 | 597 | 671 | 1100 | 1320 |
| 2026-05-03 08:30 | 5.69 | 247 | 3160 (2017) | 31 (1981) | 466 | 79 | 129 | 159 | 164 | 287 | 597 | 671 | 1100 | 1320 |
| 2026-05-03 07:30 | 5.69 | 247 | 3160 (2017) | 31 (1981) | 466 | 79 | 129 | 159 | 164 | 287 | 597 | 671 | 1100 | 1320 |
| 2026-05-03 06:30 | 5.68 | 244 | 3160 (2017) | 31 (1981) | 466 | 79 | 129 | 159 | 164 | 287 | 597 | 671 | 1100 | 1320 |
| 2026-05-03 05:30 | 5.70 | 250 | 3160 (2017) | 31 (1981) | 466 | 79 | 129 | 159 | 164 | 287 | 597 | 671 | 1100 | 1320 |
| 2026-05-03 04:30 | 5.69 | 247 | 3160 (2017) | 31 (1981) | 466 | 79 | 129 | 159 | 164 | 287 | 597 | 671 | 1100 | 1320 |
| 2026-05-03 03:30 | 5.68 | 244 | 3160 (2017) | 31 (1981) | 466 | 79 | 129 | 159 | 164 | 287 | 597 | 671 | 1100 | 1320 |
| 2026-05-03 02:30 | 5.70 | 250 | 3160 (2017) | 31 (1981) | 466 | 79 | 129 | 159 | 164 | 287 | 597 | 671 | 1100 | 1320 |
| 2026-05-03 01:30 | 5.71 | 252 | 3160 (2017) | 31 (1981) | 466 | 79 | 129 | 159 | 164 | 287 | 597 | 671 | 1100 | 1320 |
| 2026-05-03 00:30 | 5.72 | 255 | 3160 (2017) | 31 (1981) | 466 | 79 | 129 | 159 | 164 | 287 | 597 | 671 | 1100 | 1320 |
| 2026-05-02 23:30 | 5.70 | 250 | 3160 (2017) | 31 (1981) | 466 | 79 | 129 | 159 | 164 | 287 | 597 | 671 | 1100 | 1320 |
A total of 176 rows are displayed for years 1966 through 2025.